sensor_id;sensor_type;location;lat;lon;timestamp;P1;durP1;ratioP1;P2;durP2;ratioP2
56373;SDS011;58212;47.034;7.376;2022-08-11T00:02:21;2.58;;;1.33;;
56373;SDS011;58212;47.034;7.376;2022-08-11T00:04:55;2.65;;;1.77;;
56373;SDS011;58212;47.034;7.376;2022-08-11T00:07:23;2.45;;;1.52;;
56373;SDS011;58212;47.034;7.376;2022-08-11T00:09:53;3.72;;;1.85;;
56373;SDS011;58212;47.034;7.376;2022-08-11T00:12:21;3.97;;;1.90;;
56373;SDS011;58212;47.034;7.376;2022-08-11T00:14:54;2.67;;;1.30;;
56373;SDS011;58212;47.034;7.376;2022-08-11T00:17:25;2.63;;;1.60;;
56373;SDS011;58212;47.034;7.376;2022-08-11T00:19:59;1.67;;;1.58;;
56373;SDS011;58212;47.034;7.376;2022-08-11T00:22:29;2.03;;;1.58;;
56373;SDS011;58212;47.034;7.376;2022-08-11T00:24:58;5.50;;;1.95;;
56373;SDS011;58212;47.034;7.376;2022-08-11T00:27:33;2.88;;;1.48;;
56373;SDS011;58212;47.034;7.376;2022-08-11T00:30:02;1.83;;;1.35;;
56373;SDS011;58212;47.034;7.376;2022-08-11T00:32:30;1.60;;;1.50;;
56373;SDS011;58212;47.034;7.376;2022-08-11T00:34:59;2.15;;;1.60;;
56373;SDS011;58212;47.034;7.376;2022-08-11T00:37:26;2.17;;;1.42;;
56373;SDS011;58212;47.034;7.376;2022-08-11T00:39:55;1.40;;;1.30;;
56373;SDS011;58212;47.034;7.376;2022-08-11T00:42:29;2.47;;;1.75;;
56373;SDS011;58212;47.034;7.376;2022-08-11T00:45:09;3.15;;;1.60;;
56373;SDS011;58212;47.034;7.376;2022-08-11T00:47:50;2.40;;;1.52;;
56373;SDS011;58212;47.034;7.376;2022-08-11T00:50:25;2.30;;;1.45;;
56373;SDS011;58212;47.034;7.376;2022-08-11T00:56:22;3.70;;;1.60;;
56373;SDS011;58212;47.034;7.376;2022-08-11T00:59:21;1.77;;;1.30;;
56373;SDS011;58212;47.034;7.376;2022-08-11T01:02:12;2.50;;;1.40;;
56373;SDS011;58212;47.034;7.376;2022-08-11T01:04:55;5.00;;;1.63;;
56373;SDS011;58212;47.034;7.376;2022-08-11T01:08:06;2.10;;;1.50;;
56373;SDS011;58212;47.034;7.376;2022-08-11T01:17:07;2.63;;;1.50;;
56373;SDS011;58212;47.034;7.376;2022-08-11T01:20:18;4.40;;;1.70;;
56373;SDS011;58212;47.034;7.376;2022-08-11T01:23:30;2.45;;;1.30;;
56373;SDS011;58212;47.034;7.376;2022-08-11T01:29:53;1.10;;;1.00;;
56373;SDS011;58212;47.034;7.376;2022-08-11T01:36:14;2.30;;;1.50;;
56373;SDS011;58212;47.034;7.376;2022-08-11T01:39:32;2.53;;;1.27;;
56373;SDS011;58212;47.034;7.376;2022-08-11T01:45:47;2.10;;;1.50;;
56373;SDS011;58212;47.034;7.376;2022-08-11T01:48:27;2.75;;;1.45;;
56373;SDS011;58212;47.034;7.376;2022-08-11T01:51:12;2.03;;;1.30;;
56373;SDS011;58212;47.034;7.376;2022-08-11T01:53:51;4.80;;;1.58;;
56373;SDS011;58212;47.034;7.376;2022-08-11T01:56:28;1.88;;;1.50;;
56373;SDS011;58212;47.034;7.376;2022-08-11T01:59:04;2.72;;;1.60;;
56373;SDS011;58212;47.034;7.376;2022-08-11T02:01:44;2.65;;;1.40;;
56373;SDS011;58212;47.034;7.376;2022-08-11T02:04:24;2.38;;;1.42;;
56373;SDS011;58212;47.034;7.376;2022-08-11T02:07:02;2.20;;;1.45;;
56373;SDS011;58212;47.034;7.376;2022-08-11T02:09:49;3.17;;;1.50;;
56373;SDS011;58212;47.034;7.376;2022-08-11T02:12:31;1.58;;;1.35;;
56373;SDS011;58212;47.034;7.376;2022-08-11T02:15:08;2.30;;;1.40;;
56373;SDS011;58212;47.034;7.376;2022-08-11T02:17:45;1.98;;;1.42;;
56373;SDS011;58212;47.034;7.376;2022-08-11T02:20:19;1.85;;;1.30;;
56373;SDS011;58212;47.034;7.376;2022-08-11T02:23:21;2.00;;;1.70;;
56373;SDS011;58212;47.034;7.376;2022-08-11T02:26:08;4.40;;;1.50;;
56373;SDS011;58212;47.034;7.376;2022-08-11T02:28:57;2.80;;;1.42;;
56373;SDS011;58212;47.034;7.376;2022-08-11T02:31:39;1.85;;;1.52;;
56373;SDS011;58212;47.034;7.376;2022-08-11T02:34:31;2.35;;;1.50;;
56373;SDS011;58212;47.034;7.376;2022-08-11T02:37:10;2.55;;;1.80;;
56373;SDS011;58212;47.034;7.376;2022-08-11T02:39:48;3.30;;;1.30;;
56373;SDS011;58212;47.034;7.376;2022-08-11T02:42:29;2.35;;;1.30;;
56373;SDS011;58212;47.034;7.376;2022-08-11T02:45:07;2.88;;;1.42;;
56373;SDS011;58212;47.034;7.376;2022-08-11T02:47:43;3.22;;;1.42;;
56373;SDS011;58212;47.034;7.376;2022-08-11T02:50:36;1.75;;;1.58;;
56373;SDS011;58212;47.034;7.376;2022-08-11T02:53:06;2.80;;;1.58;;
56373;SDS011;58212;47.034;7.376;2022-08-11T02:55:46;3.70;;;1.65;;
56373;SDS011;58212;47.034;7.376;2022-08-11T02:58:29;1.90;;;1.70;;
56373;SDS011;58212;47.034;7.376;2022-08-11T03:01:05;3.53;;;1.65;;
56373;SDS011;58212;47.034;7.376;2022-08-11T03:03:44;2.95;;;1.73;;
56373;SDS011;58212;47.034;7.376;2022-08-11T03:06:19;2.00;;;1.40;;
56373;SDS011;58212;47.034;7.376;2022-08-11T03:08:58;2.38;;;1.40;;
56373;SDS011;58212;47.034;7.376;2022-08-11T03:11:39;2.55;;;1.50;;
56373;SDS011;58212;47.034;7.376;2022-08-11T03:14:36;3.22;;;1.75;;
56373;SDS011;58212;47.034;7.376;2022-08-11T03:17:31;2.05;;;1.70;;
56373;SDS011;58212;47.034;7.376;2022-08-11T03:20:10;3.70;;;1.42;;
56373;SDS011;58212;47.034;7.376;2022-08-11T03:22:51;1.88;;;1.45;;
56373;SDS011;58212;47.034;7.376;2022-08-11T03:25:28;3.58;;;1.58;;
56373;SDS011;58212;47.034;7.376;2022-08-11T03:28:03;3.25;;;1.63;;
56373;SDS011;58212;47.034;7.376;2022-08-11T03:30:45;2.92;;;1.70;;
56373;SDS011;58212;47.034;7.376;2022-08-11T03:33:18;2.78;;;1.58;;
56373;SDS011;58212;47.034;7.376;2022-08-11T03:36:10;3.03;;;1.63;;
56373;SDS011;58212;47.034;7.376;2022-08-11T03:38:54;2.58;;;1.67;;
56373;SDS011;58212;47.034;7.376;2022-08-11T03:41:32;2.33;;;1.70;;
56373;SDS011;58212;47.034;7.376;2022-08-11T03:44:31;3.35;;;1.83;;
56373;SDS011;58212;47.034;7.376;2022-08-11T03:47:14;4.55;;;1.67;;
56373;SDS011;58212;47.034;7.376;2022-08-11T03:49:55;2.88;;;1.73;;
56373;SDS011;58212;47.034;7.376;2022-08-11T03:52:47;2.08;;;1.55;;
56373;SDS011;58212;47.034;7.376;2022-08-11T03:55:22;2.13;;;1.73;;
56373;SDS011;58212;47.034;7.376;2022-08-11T03:58:24;3.67;;;1.67;;
56373;SDS011;58212;47.034;7.376;2022-08-11T04:07:38;2.60;;;1.80;;
56373;SDS011;58212;47.034;7.376;2022-08-11T04:10:38;2.58;;;1.73;;
56373;SDS011;58212;47.034;7.376;2022-08-11T04:13:56;2.33;;;1.63;;
56373;SDS011;58212;47.034;7.376;2022-08-11T04:20:21;1.67;;;1.42;;
56373;SDS011;58212;47.034;7.376;2022-08-11T04:23:10;3.92;;;1.67;;
56373;SDS011;58212;47.034;7.376;2022-08-11T04:26:20;4.40;;;1.70;;
56373;SDS011;58212;47.034;7.376;2022-08-11T04:29:04;3.13;;;1.70;;
56373;SDS011;58212;47.034;7.376;2022-08-11T04:31:46;2.13;;;1.77;;
56373;SDS011;58212;47.034;7.376;2022-08-11T04:34:36;3.80;;;1.67;;
56373;SDS011;58212;47.034;7.376;2022-08-11T04:37:14;2.63;;;2.00;;
56373;SDS011;58212;47.034;7.376;2022-08-11T04:40:05;2.90;;;1.80;;
56373;SDS011;58212;47.034;7.376;2022-08-11T04:49:13;4.35;;;2.00;;
56373;SDS011;58212;47.034;7.376;2022-08-11T04:52:20;2.97;;;1.73;;
56373;SDS011;58212;47.034;7.376;2022-08-11T04:55:25;4.18;;;1.80;;
56373;SDS011;58212;47.034;7.376;2022-08-11T04:58:20;2.95;;;2.22;;
56373;SDS011;58212;47.034;7.376;2022-08-11T05:01:17;3.42;;;1.83;;
56373;SDS011;58212;47.034;7.376;2022-08-11T05:04:11;3.30;;;1.67;;
56373;SDS011;58212;47.034;7.376;2022-08-11T05:10:32;2.55;;;2.15;;
56373;SDS011;58212;47.034;7.376;2022-08-11T05:13:24;3.30;;;2.08;;
56373;SDS011;58212;47.034;7.376;2022-08-11T05:16:14;2.70;;;1.70;;
56373;SDS011;58212;47.034;7.376;2022-08-11T05:19:02;2.67;;;1.80;;
56373;SDS011;58212;47.034;7.376;2022-08-11T05:21:50;2.95;;;1.77;;
56373;SDS011;58212;47.034;7.376;2022-08-11T05:24:41;2.00;;;1.80;;
56373;SDS011;58212;47.034;7.376;2022-08-11T05:27:29;4.10;;;1.80;;
56373;SDS011;58212;47.034;7.376;2022-08-11T05:30:18;4.60;;;1.70;;
56373;SDS011;58212;47.034;7.376;2022-08-11T05:33:09;1.83;;;1.60;;
56373;SDS011;58212;47.034;7.376;2022-08-11T05:35:59;4.85;;;1.90;;
56373;SDS011;58212;47.034;7.376;2022-08-11T05:38:33;3.10;;;1.80;;
56373;SDS011;58212;47.034;7.376;2022-08-11T05:41:20;2.75;;;1.70;;
56373;SDS011;58212;47.034;7.376;2022-08-11T05:44:08;2.65;;;1.77;;
56373;SDS011;58212;47.034;7.376;2022-08-11T05:46:53;3.03;;;1.67;;
56373;SDS011;58212;47.034;7.376;2022-08-11T05:49:38;2.67;;;1.65;;
56373;SDS011;58212;47.034;7.376;2022-08-11T05:52:24;2.92;;;1.90;;
56373;SDS011;58212;47.034;7.376;2022-08-11T05:55:12;4.10;;;2.00;;
56373;SDS011;58212;47.034;7.376;2022-08-11T05:58:00;2.03;;;1.90;;
56373;SDS011;58212;47.034;7.376;2022-08-11T06:00:29;3.65;;;2.00;;
56373;SDS011;58212;47.034;7.376;2022-08-11T06:02:58;3.22;;;1.90;;
56373;SDS011;58212;47.034;7.376;2022-08-11T06:05:34;3.67;;;2.10;;
56373;SDS011;58212;47.034;7.376;2022-08-11T06:08:04;5.00;;;2.25;;
56373;SDS011;58212;47.034;7.376;2022-08-11T06:10:39;2.83;;;1.90;;
56373;SDS011;58212;47.034;7.376;2022-08-11T06:13:13;2.63;;;2.00;;
56373;SDS011;58212;47.034;7.376;2022-08-11T06:15:45;3.65;;;2.00;;
56373;SDS011;58212;47.034;7.376;2022-08-11T06:18:16;4.25;;;2.00;;
56373;SDS011;58212;47.034;7.376;2022-08-11T06:20:44;4.65;;;2.15;;
56373;SDS011;58212;47.034;7.376;2022-08-11T06:23:13;2.53;;;2.25;;
56373;SDS011;58212;47.034;7.376;2022-08-11T06:25:43;2.15;;;1.63;;
56373;SDS011;58212;47.034;7.376;2022-08-11T06:28:13;4.57;;;2.10;;
56373;SDS011;58212;47.034;7.376;2022-08-11T06:30:43;5.80;;;2.00;;
56373;SDS011;58212;47.034;7.376;2022-08-11T06:33:12;4.65;;;2.03;;
56373;SDS011;58212;47.034;7.376;2022-08-11T06:35:46;4.15;;;1.80;;
56373;SDS011;58212;47.034;7.376;2022-08-11T06:38:24;2.58;;;1.90;;
56373;SDS011;58212;47.034;7.376;2022-08-11T06:41:14;4.35;;;2.30;;
56373;SDS011;58212;47.034;7.376;2022-08-11T06:44:14;2.95;;;2.08;;
56373;SDS011;58212;47.034;7.376;2022-08-11T06:46:48;2.15;;;1.90;;
56373;SDS011;58212;47.034;7.376;2022-08-11T06:49:19;4.38;;;2.15;;
56373;SDS011;58212;47.034;7.376;2022-08-11T06:52:06;2.78;;;2.00;;
56373;SDS011;58212;47.034;7.376;2022-08-11T06:54:35;3.78;;;1.90;;
56373;SDS011;58212;47.034;7.376;2022-08-11T06:57:05;3.22;;;2.03;;
56373;SDS011;58212;47.034;7.376;2022-08-11T06:59:55;3.50;;;2.03;;
56373;SDS011;58212;47.034;7.376;2022-08-11T07:02:44;4.50;;;2.17;;
56373;SDS011;58212;47.034;7.376;2022-08-11T07:05:19;4.10;;;2.03;;
56373;SDS011;58212;47.034;7.376;2022-08-11T07:08:13;2.95;;;1.70;;
56373;SDS011;58212;47.034;7.376;2022-08-11T07:11:16;2.40;;;2.20;;
56373;SDS011;58212;47.034;7.376;2022-08-11T07:14:27;3.40;;;1.95;;
56373;SDS011;58212;47.034;7.376;2022-08-11T07:17:16;3.33;;;1.88;;
56373;SDS011;58212;47.034;7.376;2022-08-11T07:19:48;2.65;;;1.73;;
56373;SDS011;58212;47.034;7.376;2022-08-11T07:22:35;3.15;;;1.95;;
56373;SDS011;58212;47.034;7.376;2022-08-11T07:25:29;2.85;;;1.60;;
56373;SDS011;58212;47.034;7.376;2022-08-11T07:28:28;3.88;;;1.77;;
56373;SDS011;58212;47.034;7.376;2022-08-11T07:31:16;3.20;;;1.92;;
56373;SDS011;58212;47.034;7.376;2022-08-11T07:33:49;3.42;;;1.73;;
56373;SDS011;58212;47.034;7.376;2022-08-11T07:36:22;3.15;;;1.77;;
56373;SDS011;58212;47.034;7.376;2022-08-11T07:38:55;3.03;;;1.83;;
56373;SDS011;58212;47.034;7.376;2022-08-11T07:41:24;3.92;;;1.98;;
56373;SDS011;58212;47.034;7.376;2022-08-11T07:43:57;4.65;;;1.92;;
56373;SDS011;58212;47.034;7.376;2022-08-11T07:46:34;2.65;;;2.10;;
56373;SDS011;58212;47.034;7.376;2022-08-11T07:49:20;3.53;;;1.90;;
56373;SDS011;58212;47.034;7.376;2022-08-11T07:52:06;2.42;;;2.17;;
56373;SDS011;58212;47.034;7.376;2022-08-11T07:54:51;2.28;;;1.90;;
56373;SDS011;58212;47.034;7.376;2022-08-11T07:57:20;3.33;;;1.98;;
56373;SDS011;58212;47.034;7.376;2022-08-11T08:00:06;3.03;;;1.90;;
56373;SDS011;58212;47.034;7.376;2022-08-11T08:02:51;5.55;;;2.20;;
56373;SDS011;58212;47.034;7.376;2022-08-11T08:05:38;4.43;;;2.10;;
56373;SDS011;58212;47.034;7.376;2022-08-11T08:08:24;2.60;;;1.85;;
56373;SDS011;58212;47.034;7.376;2022-08-11T08:11:12;3.47;;;2.00;;
56373;SDS011;58212;47.034;7.376;2022-08-11T08:13:58;3.92;;;2.28;;
56373;SDS011;58212;47.034;7.376;2022-08-11T08:16:43;4.05;;;2.15;;
56373;SDS011;58212;47.034;7.376;2022-08-11T08:19:28;2.40;;;2.20;;
56373;SDS011;58212;47.034;7.376;2022-08-11T08:21:58;2.42;;;1.77;;
56373;SDS011;58212;47.034;7.376;2022-08-11T08:24:26;3.47;;;2.10;;
56373;SDS011;58212;47.034;7.376;2022-08-11T08:26:56;5.97;;;2.47;;
56373;SDS011;58212;47.034;7.376;2022-08-11T08:29:25;3.53;;;2.10;;
56373;SDS011;58212;47.034;7.376;2022-08-11T08:32:11;3.80;;;2.00;;
56373;SDS011;58212;47.034;7.376;2022-08-11T08:34:40;3.75;;;1.75;;
56373;SDS011;58212;47.034;7.376;2022-08-11T08:37:09;4.00;;;2.20;;
56373;SDS011;58212;47.034;7.376;2022-08-11T08:39:37;4.40;;;2.25;;
56373;SDS011;58212;47.034;7.376;2022-08-11T08:42:06;3.47;;;1.88;;
56373;SDS011;58212;47.034;7.376;2022-08-11T08:44:38;2.00;;;1.80;;
56373;SDS011;58212;47.034;7.376;2022-08-11T08:47:09;3.30;;;1.80;;
56373;SDS011;58212;47.034;7.376;2022-08-11T08:49:40;3.08;;;1.65;;
56373;SDS011;58212;47.034;7.376;2022-08-11T08:52:15;3.03;;;1.75;;
56373;SDS011;58212;47.034;7.376;2022-08-11T08:54:47;2.72;;;1.85;;
56373;SDS011;58212;47.034;7.376;2022-08-11T08:57:18;3.55;;;1.90;;
56373;SDS011;58212;47.034;7.376;2022-08-11T08:59:48;4.63;;;2.40;;
56373;SDS011;58212;47.034;7.376;2022-08-11T09:02:16;5.40;;;2.53;;
56373;SDS011;58212;47.034;7.376;2022-08-11T09:04:46;2.95;;;2.13;;
56373;SDS011;58212;47.034;7.376;2022-08-11T09:07:17;5.10;;;2.20;;
56373;SDS011;58212;47.034;7.376;2022-08-11T09:09:49;3.22;;;1.85;;
56373;SDS011;58212;47.034;7.376;2022-08-11T09:12:18;4.93;;;1.90;;
56373;SDS011;58212;47.034;7.376;2022-08-11T09:14:47;3.05;;;2.17;;
56373;SDS011;58212;47.034;7.376;2022-08-11T09:17:37;3.08;;;2.28;;
56373;SDS011;58212;47.034;7.376;2022-08-11T09:20:06;2.70;;;2.10;;
56373;SDS011;58212;47.034;7.376;2022-08-11T09:22:38;2.15;;;1.92;;
56373;SDS011;58212;47.034;7.376;2022-08-11T09:25:27;3.67;;;2.20;;
56373;SDS011;58212;47.034;7.376;2022-08-11T09:28:15;2.88;;;1.80;;
56373;SDS011;58212;47.034;7.376;2022-08-11T09:30:44;2.88;;;2.10;;
56373;SDS011;58212;47.034;7.376;2022-08-11T09:33:13;5.43;;;2.20;;
56373;SDS011;58212;47.034;7.376;2022-08-11T09:35:45;2.17;;;1.88;;
56373;SDS011;58212;47.034;7.376;2022-08-11T09:38:16;3.25;;;2.30;;
56373;SDS011;58212;47.034;7.376;2022-08-11T09:41:05;4.50;;;2.42;;
56373;SDS011;58212;47.034;7.376;2022-08-11T09:43:34;3.72;;;2.20;;
56373;SDS011;58212;47.034;7.376;2022-08-11T09:46:22;2.35;;;2.15;;
56373;SDS011;58212;47.034;7.376;2022-08-11T09:48:53;4.50;;;2.17;;
56373;SDS011;58212;47.034;7.376;2022-08-11T09:51:23;3.88;;;2.20;;
56373;SDS011;58212;47.034;7.376;2022-08-11T09:53:53;4.53;;;2.10;;
56373;SDS011;58212;47.034;7.376;2022-08-11T09:56:21;3.03;;;1.98;;
56373;SDS011;58212;47.034;7.376;2022-08-11T09:59:06;3.78;;;2.20;;
56373;SDS011;58212;47.034;7.376;2022-08-11T10:01:36;4.68;;;2.35;;
56373;SDS011;58212;47.034;7.376;2022-08-11T10:04:08;4.43;;;2.50;;
56373;SDS011;58212;47.034;7.376;2022-08-11T10:06:41;2.17;;;1.98;;
56373;SDS011;58212;47.034;7.376;2022-08-11T10:09:32;3.88;;;2.45;;
56373;SDS011;58212;47.034;7.376;2022-08-11T10:12:02;2.75;;;2.40;;
56373;SDS011;58212;47.034;7.376;2022-08-11T10:14:33;3.65;;;1.90;;
56373;SDS011;58212;47.034;7.376;2022-08-11T10:17:23;2.78;;;2.38;;
56373;SDS011;58212;47.034;7.376;2022-08-11T10:19:51;3.65;;;2.00;;
56373;SDS011;58212;47.034;7.376;2022-08-11T10:22:21;4.07;;;1.90;;
56373;SDS011;58212;47.034;7.376;2022-08-11T10:25:08;2.35;;;2.20;;
56373;SDS011;58212;47.034;7.376;2022-08-11T10:28:02;4.05;;;2.08;;
56373;SDS011;58212;47.034;7.376;2022-08-11T10:30:30;3.72;;;2.75;;
56373;SDS011;58212;47.034;7.376;2022-08-11T10:33:17;5.43;;;2.53;;
56373;SDS011;58212;47.034;7.376;2022-08-11T10:36:03;2.75;;;2.45;;
56373;SDS011;58212;47.034;7.376;2022-08-11T10:38:31;2.63;;;2.42;;
56373;SDS011;58212;47.034;7.376;2022-08-11T10:41:02;2.30;;;2.20;;
56373;SDS011;58212;47.034;7.376;2022-08-11T10:43:44;5.03;;;2.50;;
56373;SDS011;58212;47.034;7.376;2022-08-11T10:46:11;3.22;;;2.55;;
56373;SDS011;58212;47.034;7.376;2022-08-11T10:48:57;4.22;;;2.22;;
56373;SDS011;58212;47.034;7.376;2022-08-11T10:51:25;3.50;;;2.28;;
56373;SDS011;58212;47.034;7.376;2022-08-11T10:54:10;3.10;;;2.58;;
56373;SDS011;58212;47.034;7.376;2022-08-11T10:56:59;3.03;;;2.40;;
56373;SDS011;58212;47.034;7.376;2022-08-11T10:59:44;4.70;;;2.42;;
56373;SDS011;58212;47.034;7.376;2022-08-11T11:02:12;3.20;;;2.33;;
56373;SDS011;58212;47.034;7.376;2022-08-11T11:04:56;4.15;;;2.33;;
56373;SDS011;58212;47.034;7.376;2022-08-11T11:07:30;3.88;;;2.40;;
56373;SDS011;58212;47.034;7.376;2022-08-11T11:10:05;3.90;;;2.90;;
56373;SDS011;58212;47.034;7.376;2022-08-11T11:12:36;2.92;;;2.45;;
56373;SDS011;58212;47.034;7.376;2022-08-11T11:15:25;4.82;;;2.45;;
56373;SDS011;58212;47.034;7.376;2022-08-11T11:18:14;3.28;;;2.70;;
56373;SDS011;58212;47.034;7.376;2022-08-11T11:20:46;3.63;;;2.83;;
56373;SDS011;58212;47.034;7.376;2022-08-11T11:23:19;3.30;;;2.85;;
56373;SDS011;58212;47.034;7.376;2022-08-11T11:26:11;4.72;;;2.60;;
56373;SDS011;58212;47.034;7.376;2022-08-11T11:32:15;3.22;;;2.60;;
56373;SDS011;58212;47.034;7.376;2022-08-11T11:37:45;2.65;;;2.20;;
56373;SDS011;58212;47.034;7.376;2022-08-11T11:40:14;3.65;;;2.30;;
56373;SDS011;58212;47.034;7.376;2022-08-11T11:42:45;5.72;;;2.80;;
56373;SDS011;58212;47.034;7.376;2022-08-11T11:45:16;3.00;;;2.30;;
56373;SDS011;58212;47.034;7.376;2022-08-11T11:47:46;3.38;;;2.65;;
56373;SDS011;58212;47.034;7.376;2022-08-11T11:50:17;4.03;;;2.78;;
56373;SDS011;58212;47.034;7.376;2022-08-11T11:52:49;2.70;;;2.50;;
56373;SDS011;58212;47.034;7.376;2022-08-11T11:55:19;3.83;;;2.65;;
56373;SDS011;58212;47.034;7.376;2022-08-11T11:57:48;2.70;;;2.45;;
56373;SDS011;58212;47.034;7.376;2022-08-11T12:00:36;3.22;;;2.55;;
56373;SDS011;58212;47.034;7.376;2022-08-11T12:03:24;3.08;;;2.72;;
56373;SDS011;58212;47.034;7.376;2022-08-11T12:05:52;2.78;;;2.50;;
56373;SDS011;58212;47.034;7.376;2022-08-11T12:08:20;2.92;;;2.63;;
56373;SDS011;58212;47.034;7.376;2022-08-11T12:10:50;3.03;;;2.60;;
56373;SDS011;58212;47.034;7.376;2022-08-11T12:13:43;2.63;;;2.40;;
56373;SDS011;58212;47.034;7.376;2022-08-11T12:16:13;3.55;;;2.50;;
56373;SDS011;58212;47.034;7.376;2022-08-11T12:18:44;3.38;;;2.63;;
56373;SDS011;58212;47.034;7.376;2022-08-11T12:21:13;2.55;;;2.35;;
56373;SDS011;58212;47.034;7.376;2022-08-11T12:23:41;3.45;;;2.53;;
56373;SDS011;58212;47.034;7.376;2022-08-11T12:26:28;4.72;;;2.50;;
56373;SDS011;58212;47.034;7.376;2022-08-11T12:29:19;4.05;;;2.58;;
56373;SDS011;58212;47.034;7.376;2022-08-11T12:31:53;2.80;;;2.50;;
56373;SDS011;58212;47.034;7.376;2022-08-11T12:34:24;3.13;;;2.85;;
56373;SDS011;58212;47.034;7.376;2022-08-11T12:36:53;3.90;;;2.58;;
56373;SDS011;58212;47.034;7.376;2022-08-11T12:39:24;3.85;;;2.83;;
56373;SDS011;58212;47.034;7.376;2022-08-11T12:42:17;3.70;;;2.70;;
56373;SDS011;58212;47.034;7.376;2022-08-11T12:45:03;4.07;;;2.70;;
56373;SDS011;58212;47.034;7.376;2022-08-11T12:48:06;2.83;;;2.60;;
56373;SDS011;58212;47.034;7.376;2022-08-11T12:50:54;3.28;;;2.70;;
56373;SDS011;58212;47.034;7.376;2022-08-11T12:53:42;4.35;;;3.10;;
56373;SDS011;58212;47.034;7.376;2022-08-11T12:56:17;2.80;;;2.60;;
56373;SDS011;58212;47.034;7.376;2022-08-11T12:59:03;3.55;;;2.70;;
56373;SDS011;58212;47.034;7.376;2022-08-11T13:01:48;3.33;;;2.72;;
56373;SDS011;58212;47.034;7.376;2022-08-11T13:04:35;2.90;;;2.70;;
56373;SDS011;58212;47.034;7.376;2022-08-11T13:07:20;3.42;;;2.90;;
56373;SDS011;58212;47.034;7.376;2022-08-11T13:09:48;3.88;;;2.97;;
56373;SDS011;58212;47.034;7.376;2022-08-11T13:12:16;3.90;;;2.53;;
56373;SDS011;58212;47.034;7.376;2022-08-11T13:15:01;3.42;;;3.00;;
56373;SDS011;58212;47.034;7.376;2022-08-11T13:17:28;5.93;;;2.88;;
56373;SDS011;58212;47.034;7.376;2022-08-11T13:20:00;3.80;;;2.63;;
56373;SDS011;58212;47.034;7.376;2022-08-11T13:22:31;5.68;;;2.88;;
56373;SDS011;58212;47.034;7.376;2022-08-11T13:24:58;3.17;;;2.70;;
56373;SDS011;58212;47.034;7.376;2022-08-11T13:27:25;3.17;;;2.90;;
56373;SDS011;58212;47.034;7.376;2022-08-11T13:29:55;2.65;;;2.45;;
56373;SDS011;58212;47.034;7.376;2022-08-11T13:32:37;3.28;;;2.90;;
56373;SDS011;58212;47.034;7.376;2022-08-11T13:35:06;2.78;;;2.50;;
56373;SDS011;58212;47.034;7.376;2022-08-11T13:37:35;3.45;;;2.30;;
56373;SDS011;58212;47.034;7.376;2022-08-11T13:40:06;3.05;;;2.70;;
56373;SDS011;58212;47.034;7.376;2022-08-11T13:42:34;3.03;;;2.38;;
56373;SDS011;58212;47.034;7.376;2022-08-11T13:45:04;2.70;;;2.50;;
56373;SDS011;58212;47.034;7.376;2022-08-11T13:47:32;2.92;;;2.65;;
56373;SDS011;58212;47.034;7.376;2022-08-11T13:50:00;3.55;;;3.00;;
56373;SDS011;58212;47.034;7.376;2022-08-11T13:52:29;4.18;;;2.80;;
56373;SDS011;58212;47.034;7.376;2022-08-11T13:54:58;4.05;;;2.80;;
56373;SDS011;58212;47.034;7.376;2022-08-11T13:57:25;3.38;;;2.88;;
56373;SDS011;58212;47.034;7.376;2022-08-11T13:59:57;2.88;;;2.67;;
56373;SDS011;58212;47.034;7.376;2022-08-11T14:02:37;4.30;;;3.00;;
56373;SDS011;58212;47.034;7.376;2022-08-11T14:05:09;3.25;;;2.95;;
56373;SDS011;58212;47.034;7.376;2022-08-11T14:07:45;3.40;;;2.75;;
56373;SDS011;58212;47.034;7.376;2022-08-11T14:10:16;5.75;;;3.00;;
56373;SDS011;58212;47.034;7.376;2022-08-11T14:12:47;4.70;;;2.75;;
56373;SDS011;58212;47.034;7.376;2022-08-11T14:15:38;3.03;;;2.83;;
56373;SDS011;58212;47.034;7.376;2022-08-11T14:18:08;3.97;;;3.10;;
56373;SDS011;58212;47.034;7.376;2022-08-11T14:20:40;3.47;;;2.75;;
56373;SDS011;58212;47.034;7.376;2022-08-11T14:23:28;4.80;;;2.70;;
56373;SDS011;58212;47.034;7.376;2022-08-11T14:26:00;3.17;;;2.88;;
56373;SDS011;58212;47.034;7.376;2022-08-11T14:28:45;5.55;;;2.88;;
56373;SDS011;58212;47.034;7.376;2022-08-11T14:31:14;2.83;;;2.63;;
56373;SDS011;58212;47.034;7.376;2022-08-11T14:33:42;3.40;;;2.90;;
56373;SDS011;58212;47.034;7.376;2022-08-11T14:36:10;4.35;;;2.72;;
56373;SDS011;58212;47.034;7.376;2022-08-11T14:38:39;3.08;;;2.40;;
56373;SDS011;58212;47.034;7.376;2022-08-11T14:41:07;3.47;;;2.53;;
56373;SDS011;58212;47.034;7.376;2022-08-11T14:43:54;5.90;;;5.30;;
56373;SDS011;58212;47.034;7.376;2022-08-11T14:46:42;3.65;;;3.35;;
56373;SDS011;58212;47.034;7.376;2022-08-11T14:49:28;4.55;;;3.05;;
56373;SDS011;58212;47.034;7.376;2022-08-11T14:51:56;3.17;;;2.90;;
56373;SDS011;58212;47.034;7.376;2022-08-11T14:54:25;4.53;;;2.97;;
56373;SDS011;58212;47.034;7.376;2022-08-11T14:57:21;4.60;;;2.90;;
56373;SDS011;58212;47.034;7.376;2022-08-11T14:59:52;3.22;;;2.83;;
56373;SDS011;58212;47.034;7.376;2022-08-11T15:02:22;4.45;;;2.95;;
56373;SDS011;58212;47.034;7.376;2022-08-11T15:05:07;2.97;;;2.78;;
56373;SDS011;58212;47.034;7.376;2022-08-11T15:07:34;2.90;;;2.70;;
56373;SDS011;58212;47.034;7.376;2022-08-11T15:10:06;2.97;;;2.78;;
56373;SDS011;58212;47.034;7.376;2022-08-11T15:12:35;3.13;;;2.83;;
56373;SDS011;58212;47.034;7.376;2022-08-11T15:15:06;2.88;;;2.60;;
56373;SDS011;58212;47.034;7.376;2022-08-11T15:17:56;3.22;;;3.00;;
56373;SDS011;58212;47.034;7.376;2022-08-11T15:20:26;2.90;;;2.58;;
56373;SDS011;58212;47.034;7.376;2022-08-11T15:23:12;2.65;;;2.45;;
56373;SDS011;58212;47.034;7.376;2022-08-11T15:25:59;4.05;;;2.88;;
56373;SDS011;58212;47.034;7.376;2022-08-11T15:28:30;3.72;;;2.90;;
56373;SDS011;58212;47.034;7.376;2022-08-11T15:31:22;3.22;;;2.92;;
56373;SDS011;58212;47.034;7.376;2022-08-11T15:34:11;6.18;;;3.15;;
56373;SDS011;58212;47.034;7.376;2022-08-11T15:37:02;4.63;;;3.38;;
56373;SDS011;58212;47.034;7.376;2022-08-11T15:39:51;3.35;;;3.05;;
56373;SDS011;58212;47.034;7.376;2022-08-11T15:42:43;3.13;;;2.85;;
56373;SDS011;58212;47.034;7.376;2022-08-11T15:45:32;9.38;;;3.17;;
56373;SDS011;58212;47.034;7.376;2022-08-11T15:48:21;3.08;;;2.88;;
56373;SDS011;58212;47.034;7.376;2022-08-11T15:50:56;3.78;;;3.22;;
56373;SDS011;58212;47.034;7.376;2022-08-11T15:53:30;4.18;;;2.95;;
56373;SDS011;58212;47.034;7.376;2022-08-11T15:56:03;9.18;;;3.15;;
56373;SDS011;58212;47.034;7.376;2022-08-11T15:58:35;5.00;;;3.72;;
56373;SDS011;58212;47.034;7.376;2022-08-11T16:01:23;5.28;;;2.90;;
56373;SDS011;58212;47.034;7.376;2022-08-11T16:04:13;3.15;;;2.85;;
56373;SDS011;58212;47.034;7.376;2022-08-11T16:06:44;3.28;;;3.00;;
56373;SDS011;58212;47.034;7.376;2022-08-11T16:09:19;3.78;;;3.33;;
56373;SDS011;58212;47.034;7.376;2022-08-11T16:11:49;3.05;;;2.80;;
56373;SDS011;58212;47.034;7.376;2022-08-11T16:14:19;3.67;;;3.13;;
56373;SDS011;58212;47.034;7.376;2022-08-11T16:17:08;3.33;;;3.05;;
56373;SDS011;58212;47.034;7.376;2022-08-11T16:19:38;3.40;;;3.10;;
56373;SDS011;58212;47.034;7.376;2022-08-11T16:22:08;3.47;;;3.10;;
56373;SDS011;58212;47.034;7.376;2022-08-11T16:24:38;3.80;;;3.38;;
56373;SDS011;58212;47.034;7.376;2022-08-11T16:27:09;4.90;;;3.17;;
56373;SDS011;58212;47.034;7.376;2022-08-11T16:29:40;4.60;;;3.28;;
56373;SDS011;58212;47.034;7.376;2022-08-11T16:32:10;4.32;;;3.20;;
56373;SDS011;58212;47.034;7.376;2022-08-11T16:34:47;4.05;;;3.45;;
56373;SDS011;58212;47.034;7.376;2022-08-11T16:37:35;3.88;;;3.42;;
56373;SDS011;58212;47.034;7.376;2022-08-11T16:40:20;8.77;;;3.20;;
56373;SDS011;58212;47.034;7.376;2022-08-11T16:42:49;5.30;;;3.55;;
56373;SDS011;58212;47.034;7.376;2022-08-11T16:45:36;5.88;;;3.33;;
56373;SDS011;58212;47.034;7.376;2022-08-11T16:48:23;3.60;;;3.30;;